Time;durP1;ratioP1;P1;durP2;ratioP2;P2;SDS_P1;SDS_P2;PMS_P1;PMS_P2;Temp;Humidity;BMP_temperature;BMP_pressure;BME280_temperature;BME280_humidity;BME280_pressure;Samples;Min_cycle;Max_cycle;Signal;HPM_P1;HPM_P2
2021/09/07 00:02:21;;;;;;;;;;;16.40;99.90;;;;;;5098914;28;19979;-91
2021/09/07 00:04:46;;;;;;;;;;;16.40;99.90;;;;;;5132823;27;19970;-92
2021/09/07 00:07:12;;;;;;;;;;;16.30;99.90;;;;;;5117695;27;19923;-89
2021/09/07 00:09:37;;;;;;;;;;;16.40;99.90;;;;;;5083749;28;20348;-91
2021/09/07 00:12:03;;;;;;;;;;;16.30;99.90;;;;;;5106039;28;19920;-92
2021/09/07 00:14:29;;;;;;;;;;;16.30;99.90;;;;;;5124557;27;20343;-90
2021/09/07 00:16:54;;;;;;;;;;;16.30;99.90;;;;;;5101693;27;20837;-91
2021/09/07 00:19:20;;;;;;;;;;;16.20;99.90;;;;;;5070707;28;20371;-92
2021/09/07 00:21:46;;;;;;;;;;;16.20;99.90;;;;;;5092032;28;19989;-92
2021/09/07 00:24:11;;;;;;;;;;;16.20;99.90;;;;;;5109358;28;20358;-91
2021/09/07 00:26:37;;;;;;;;;;;16.20;99.90;;;;;;5091796;28;19930;-92
2021/09/07 00:29:02;;;;;;;;;;;16.10;99.90;;;;;;5090724;28;19951;-92
2021/09/07 00:31:28;;;;;;;;;;;16.10;99.90;;;;;;5090351;28;20068;-89
2021/09/07 00:33:53;;;;;;;;;;;16.00;99.90;;;;;;5091535;28;19924;-91
2021/09/07 00:36:19;;;;;;;;;;;16.00;99.90;;;;;;5122294;27;19920;-91
2021/09/07 00:38:44;;;;;;;;;;;16.00;99.90;;;;;;5119609;27;19924;-90
2021/09/07 00:41:10;;;;;;;;;;;16.00;99.90;;;;;;5091595;28;19973;-91
2021/09/07 00:43:39;;;;;;;;;;;15.90;99.90;;;;;;5089804;28;19926;-92
2021/09/07 00:46:04;;;;;;;;;;;15.90;99.90;;;;;;5106165;27;19920;-92
2021/09/07 00:48:30;;;;;;;;;;;15.90;99.90;;;;;;5070718;28;19926;-91
2021/09/07 00:50:55;;;;;;;;;;;15.80;99.90;;;;;;5075519;28;19931;-91
2021/09/07 00:53:21;;;;;;;;;;;15.80;99.90;;;;;;5105368;28;19924;-91
2021/09/07 00:55:48;;;;;;;;;;;15.80;99.90;;;;;;5108761;28;19924;-91
2021/09/07 00:58:15;;;;;;;;;;;15.70;99.90;;;;;;5091598;28;19976;-92
2021/09/07 01:00:42;;;;;;;;;;;15.70;99.90;;;;;;5091333;28;20482;-90
2021/09/07 01:03:08;;;;;;;;;;;15.70;99.90;;;;;;5090773;28;19945;-91
2021/09/07 01:05:34;;;;;;;;;;;15.70;99.90;;;;;;5062516;28;20382;-91
2021/09/07 01:08:00;;;;;;;;;;;15.70;99.90;;;;;;5092827;28;19920;-91
2021/09/07 01:10:26;;;;;;;;;;;15.70;99.90;;;;;;5089816;28;20022;-92
2021/09/07 01:12:52;;;;;;;;;;;15.70;99.90;;;;;;5125619;27;19924;-91
2021/09/07 01:15:17;;;;;;;;;;;15.60;99.90;;;;;;5108769;28;19960;-91
2021/09/07 01:17:43;;;;;;;;;;;15.60;99.90;;;;;;5108234;28;20382;-91
2021/09/07 01:20:09;;;;;;;;;;;15.60;99.90;;;;;;5094304;28;19923;-91
2021/09/07 01:22:35;;;;;;;;;;;15.60;99.90;;;;;;5108051;28;20424;-91
2021/09/07 01:25:00;;;;;;;;;;;15.60;99.90;;;;;;5108049;28;20026;-91
2021/09/07 01:27:26;;;;;;;;;;;15.60;99.90;;;;;;5096067;28;20053;-91
2021/09/07 01:29:51;;;;;;;;;;;15.60;99.90;;;;;;5109626;28;20401;-91
2021/09/07 01:32:18;;;;;;;;;;;15.50;99.90;;;;;;5118093;27;20014;-90
2021/09/07 01:34:44;;;;;;;;;;;15.60;99.90;;;;;;5109869;28;20350;-90
2021/09/07 01:37:09;;;;;;;;;;;15.60;99.90;;;;;;5079129;28;19920;-91
2021/09/07 01:39:36;;;;;;;;;;;15.60;99.90;;;;;;5095056;28;20010;-91
2021/09/07 01:42:02;;;;;;;;;;;15.60;99.90;;;;;;5087437;28;20272;-91
2021/09/07 01:44:28;;;;;;;;;;;15.60;99.90;;;;;;5110880;28;19919;-92
2021/09/07 01:46:53;;;;;;;;;;;15.60;99.90;;;;;;5075816;28;20042;-91
2021/09/07 01:49:19;;;;;;;;;;;15.60;99.90;;;;;;5094591;28;19923;-92
2021/09/07 01:51:45;;;;;;;;;;;15.70;99.90;;;;;;5092472;28;19976;-91
2021/09/07 01:54:12;;;;;;;;;;;15.80;99.90;;;;;;5093320;28;19920;-92
2021/09/07 01:56:37;;;;;;;;;;;15.70;99.90;;;;;;5115781;27;19962;-90
2021/09/07 01:59:04;;;;;;;;;;;15.80;99.90;;;;;;5128917;27;20377;-91
2021/09/07 02:01:29;;;;;;;;;;;15.80;99.90;;;;;;5091953;28;20569;-92
2021/09/07 02:03:55;;;;;;;;;;;15.80;99.90;;;;;;5129651;27;19931;-91
2021/09/07 02:06:21;;;;;;;;;;;15.70;99.90;;;;;;5123264;27;19924;-92
2021/09/07 02:08:46;;;;;;;;;;;15.70;99.90;;;;;;5098877;28;20394;-91
2021/09/07 02:11:12;;;;;;;;;;;15.70;99.90;;;;;;5067624;28;19931;-91
2021/09/07 02:13:37;;;;;;;;;;;15.70;99.90;;;;;;5110470;28;19919;-90
2021/09/07 02:16:03;;;;;;;;;;;15.60;99.90;;;;;;5127327;27;19924;-90
2021/09/07 02:18:29;;;;;;;;;;;15.60;99.90;;;;;;5094916;28;19928;-91
2021/09/07 02:20:54;;;;;;;;;;;15.60;99.90;;;;;;5095044;28;20183;-91
2021/09/07 02:23:20;;;;;;;;;;;15.50;99.90;;;;;;5111861;27;19923;-91
2021/09/07 02:25:46;;;;;;;;;;;15.50;99.90;;;;;;5078522;28;20014;-90
2021/09/07 02:28:11;;;;;;;;;;;15.50;99.90;;;;;;5112108;28;20451;-91
2021/09/07 02:30:37;;;;;;;;;;;15.50;99.90;;;;;;5103618;28;19924;-92
2021/09/07 02:33:04;;;;;;;;;;;15.50;99.90;;;;;;5098292;28;19929;-91
2021/09/07 02:35:32;;;;;;;;;;;15.50;99.90;;;;;;5063592;28;19920;-91
2021/09/07 02:37:58;;;;;;;;;;;15.60;99.90;;;;;;5077301;28;19919;-91
2021/09/07 02:40:24;;;;;;;;;;;15.50;99.90;;;;;;5093667;28;19934;-92
2021/09/07 02:42:50;;;;;;;;;;;15.60;99.90;;;;;;5128320;27;19924;-91
2021/09/07 02:45:15;;;;;;;;;;;15.60;99.90;;;;;;5092649;28;20298;-92
2021/09/07 02:47:41;;;;;;;;;;;15.60;99.90;;;;;;5094169;28;19965;-90
2021/09/07 02:50:08;;;;;;;;;;;15.60;99.90;;;;;;5128940;27;20345;-92
2021/09/07 02:52:34;;;;;;;;;;;15.60;99.90;;;;;;5109723;28;20295;-91
2021/09/07 02:54:59;;;;;;;;;;;15.60;99.90;;;;;;5093505;28;19964;-91
2021/09/07 02:57:25;;;;;;;;;;;15.60;99.90;;;;;;5094830;28;19923;-92
2021/09/07 02:59:50;;;;;;;;;;;15.60;99.90;;;;;;5098902;28;20011;-92
2021/09/07 03:02:16;;;;;;;;;;;15.60;99.90;;;;;;5076843;28;19923;-91
2021/09/07 03:04:41;;;;;;;;;;;15.60;99.90;;;;;;5110257;28;20724;-90
2021/09/07 03:07:07;;;;;;;;;;;15.60;99.90;;;;;;5109730;28;19931;-92
2021/09/07 03:09:32;;;;;;;;;;;15.60;99.90;;;;;;5076978;28;19946;-91
2021/09/07 03:11:58;;;;;;;;;;;15.70;99.90;;;;;;5069370;28;19927;-91
2021/09/07 03:14:24;;;;;;;;;;;15.70;99.90;;;;;;5110573;28;19973;-89
2021/09/07 03:16:49;;;;;;;;;;;15.60;99.90;;;;;;5109864;28;20393;-92
2021/09/07 03:19:15;;;;;;;;;;;15.70;99.90;;;;;;5077247;28;19927;-92
2021/09/07 03:21:41;;;;;;;;;;;15.60;99.90;;;;;;5110225;28;20059;-91
2021/09/07 03:24:07;;;;;;;;;;;15.60;99.90;;;;;;5127808;27;19970;-91
2021/09/07 03:26:32;;;;;;;;;;;15.70;99.90;;;;;;5110201;28;19967;-92
2021/09/07 03:28:58;;;;;;;;;;;15.70;99.90;;;;;;5097509;28;19946;-90
2021/09/07 03:31:23;;;;;;;;;;;15.70;99.90;;;;;;5096557;28;19924;-91
2021/09/07 03:33:49;;;;;;;;;;;15.70;99.90;;;;;;5089023;28;19923;-90
2021/09/07 03:36:15;;;;;;;;;;;15.60;99.90;;;;;;5074651;28;19920;-91
2021/09/07 03:38:40;;;;;;;;;;;15.60;99.90;;;;;;5109848;28;19930;-91
2021/09/07 03:41:06;;;;;;;;;;;15.60;99.90;;;;;;5091267;28;20014;-91
2021/09/07 03:43:31;;;;;;;;;;;15.70;99.90;;;;;;5090234;28;20018;-91
2021/09/07 03:45:57;;;;;;;;;;;15.70;99.90;;;;;;5109223;28;19924;-92
2021/09/07 03:48:22;;;;;;;;;;;15.70;99.90;;;;;;5062548;28;19924;-92
2021/09/07 03:50:48;;;;;;;;;;;15.70;99.90;;;;;;5098310;28;19923;-92
2021/09/07 03:53:14;;;;;;;;;;;15.70;99.90;;;;;;5090142;28;19923;-92
2021/09/07 03:55:39;;;;;;;;;;;15.70;99.90;;;;;;5109869;28;20382;-91
2021/09/07 03:58:05;;;;;;;;;;;15.70;99.90;;;;;;5117036;27;20007;-91
2021/09/07 04:00:31;;;;;;;;;;;15.70;99.90;;;;;;5107803;28;20034;-91
2021/09/07 04:02:57;;;;;;;;;;;15.60;99.90;;;;;;5087705;28;20466;-91
2021/09/07 04:05:22;;;;;;;;;;;15.60;99.90;;;;;;5106616;28;20287;-92
2021/09/07 04:07:49;;;;;;;;;;;15.60;99.90;;;;;;5108318;28;19923;-91
2021/09/07 04:10:14;;;;;;;;;;;15.50;99.90;;;;;;5110669;28;20038;-90
2021/09/07 04:12:40;;;;;;;;;;;15.50;99.90;;;;;;5123709;27;20031;-91
2021/09/07 04:15:06;;;;;;;;;;;15.50;99.90;;;;;;5126320;27;19924;-91
2021/09/07 04:17:31;;;;;;;;;;;15.50;99.90;;;;;;5109917;28;20357;-92
2021/09/07 04:19:57;;;;;;;;;;;15.50;99.90;;;;;;5092627;28;19972;-91
2021/09/07 04:22:23;;;;;;;;;;;15.40;99.90;;;;;;5070868;28;20115;-91
2021/09/07 04:24:48;;;;;;;;;;;15.50;99.90;;;;;;5072556;28;19924;-92
2021/09/07 04:27:14;;;;;;;;;;;15.50;99.90;;;;;;5109869;28;19924;-91
2021/09/07 04:29:39;;;;;;;;;;;15.50;99.90;;;;;;5091377;28;19923;-91
2021/09/07 04:32:05;;;;;;;;;;;15.50;99.90;;;;;;5122413;27;20378;-91
2021/09/07 04:34:31;;;;;;;;;;;15.50;99.90;;;;;;5091923;28;19946;-92
2021/09/07 04:36:56;;;;;;;;;;;15.50;99.90;;;;;;5091111;28;19924;-92
2021/09/07 04:39:22;;;;;;;;;;;15.50;99.90;;;;;;5091344;28;20064;-91
2021/09/07 04:41:48;;;;;;;;;;;15.40;99.90;;;;;;5075064;28;20118;-91
2021/09/07 04:44:14;;;;;;;;;;;15.40;99.90;;;;;;5071079;28;19973;-91
2021/09/07 04:46:39;;;;;;;;;;;15.40;99.90;;;;;;5074740;28;19924;-92
2021/09/07 04:49:05;;;;;;;;;;;15.30;99.90;;;;;;5109007;28;20010;-91
2021/09/07 04:51:30;;;;;;;;;;;15.30;99.90;;;;;;5107472;28;20401;-92
2021/09/07 04:53:58;;;;;;;;;;;15.20;99.90;;;;;;5075000;28;19927;-92
2021/09/07 04:56:24;;;;;;;;;;;15.20;99.90;;;;;;5125242;27;19920;-91
2021/09/07 04:58:49;;;;;;;;;;;15.20;99.90;;;;;;5104511;28;20373;-90
2021/09/07 05:01:15;;;;;;;;;;;15.10;99.90;;;;;;5072406;28;20014;-91
2021/09/07 05:03:40;;;;;;;;;;;15.10;99.90;;;;;;5076177;28;19926;-93
2021/09/07 05:06:08;;;;;;;;;;;15.00;99.90;;;;;;5108385;28;19924;-90
2021/09/07 05:08:34;;;;;;;;;;;15.00;99.90;;;;;;5112303;28;19982;-93
2021/09/07 05:10:59;;;;;;;;;;;15.00;99.90;;;;;;5093892;28;19924;-94
2021/09/07 05:13:25;;;;;;;;;;;15.00;99.90;;;;;;5076515;28;19963;-92
2021/09/07 05:15:51;;;;;;;;;;;14.90;99.90;;;;;;5094661;28;19923;-93
2021/09/07 05:18:16;;;;;;;;;;;14.90;99.90;;;;;;5082145;28;19964;-94
2021/09/07 05:20:42;;;;;;;;;;;14.90;99.90;;;;;;5094234;28;19988;-95
2021/09/07 05:23:07;;;;;;;;;;;14.80;99.90;;;;;;5093960;28;20291;-92
2021/09/07 05:25:33;;;;;;;;;;;14.80;99.90;;;;;;5076917;28;19955;-92
2021/09/07 05:27:58;;;;;;;;;;;14.80;99.90;;;;;;5110633;28;19945;-94
2021/09/07 05:30:24;;;;;;;;;;;14.70;99.90;;;;;;5110955;28;19920;-95
2021/09/07 05:32:50;;;;;;;;;;;14.70;99.90;;;;;;5127100;27;19931;-93
2021/09/07 05:35:16;;;;;;;;;;;14.70;99.90;;;;;;5107593;28;19974;-92
2021/09/07 05:37:41;;;;;;;;;;;14.70;99.90;;;;;;5090504;28;19927;-90
2021/09/07 05:40:12;;;;;;;;;;;14.70;99.90;;;;;;5091159;28;19923;-91
2021/09/07 05:42:41;;;;;;;;;;;14.80;99.90;;;;;;5106085;28;19928;-91
2021/09/07 05:45:07;;;;;;;;;;;14.80;99.90;;;;;;5107246;28;19993;-91
2021/09/07 05:47:33;;;;;;;;;;;14.90;99.90;;;;;;5107006;28;20451;-91
2021/09/07 05:49:58;;;;;;;;;;;14.90;99.90;;;;;;5093330;28;19923;-92
2021/09/07 05:52:24;;;;;;;;;;;14.90;99.90;;;;;;5090350;28;20000;-91
2021/09/07 05:54:49;;;;;;;;;;;14.80;99.90;;;;;;5113725;28;20558;-91
2021/09/07 05:57:15;;;;;;;;;;;14.90;99.90;;;;;;5115512;27;20397;-91
2021/09/07 05:59:41;;;;;;;;;;;14.90;99.90;;;;;;5117090;28;19972;-92
2021/09/07 06:02:06;;;;;;;;;;;14.90;99.90;;;;;;5112194;28;19923;-91
2021/09/07 06:04:32;;;;;;;;;;;15.00;99.90;;;;;;5073352;28;19924;-91
2021/09/07 06:06:57;;;;;;;;;;;15.00;99.90;;;;;;5090163;28;19924;-91
2021/09/07 06:09:23;;;;;;;;;;;15.00;99.90;;;;;;5091979;28;19927;-92
2021/09/07 06:11:49;;;;;;;;;;;15.00;99.90;;;;;;5090753;28;19924;-91
2021/09/07 06:14:14;;;;;;;;;;;15.00;99.90;;;;;;5108452;28;19923;-91
2021/09/07 06:16:40;;;;;;;;;;;15.00;99.90;;;;;;5112002;28;19923;-90
2021/09/07 06:19:05;;;;;;;;;;;15.10;99.90;;;;;;5112349;28;20254;-91
2021/09/07 06:21:31;;;;;;;;;;;15.10;99.90;;;;;;5110626;28;19927;-92
2021/09/07 06:23:57;;;;;;;;;;;15.10;99.90;;;;;;5077665;28;20368;-91
2021/09/07 06:26:22;;;;;;;;;;;15.10;99.90;;;;;;5087107;28;19924;-91
2021/09/07 06:28:48;;;;;;;;;;;15.10;99.90;;;;;;5111259;28;20460;-92
2021/09/07 06:31:13;;;;;;;;;;;15.20;99.90;;;;;;5112062;28;19971;-91
2021/09/07 06:33:39;;;;;;;;;;;15.20;99.90;;;;;;5078259;28;19923;-92
2021/09/07 06:36:05;;;;;;;;;;;15.20;99.90;;;;;;5084789;28;20479;-91
2021/09/07 06:38:30;;;;;;;;;;;15.30;99.90;;;;;;5095459;28;19927;-90
2021/09/07 06:40:56;;;;;;;;;;;15.30;99.90;;;;;;5115969;27;20042;-92
2021/09/07 06:43:21;;;;;;;;;;;15.30;99.90;;;;;;5093855;28;19975;-91
2021/09/07 06:45:47;;;;;;;;;;;15.40;99.90;;;;;;5107490;28;20325;-92
2021/09/07 06:48:13;;;;;;;;;;;15.40;99.90;;;;;;5110647;27;19923;-91
2021/09/07 06:50:39;;;;;;;;;;;15.50;99.90;;;;;;5107434;28;19927;-92
2021/09/07 06:53:05;;;;;;;;;;;15.50;99.90;;;;;;5119729;27;19924;-91
2021/09/07 06:55:30;;;;;;;;;;;15.60;99.90;;;;;;5127999;27;19935;-91
2021/09/07 06:57:57;;;;;;;;;;;15.60;99.90;;;;;;5110345;28;19920;-91
2021/09/07 07:00:23;;;;;;;;;;;15.60;99.90;;;;;;5111059;28;19924;-89
2021/09/07 07:02:49;;;;;;;;;;;15.60;99.90;;;;;;5110174;28;19924;-91
2021/09/07 07:05:15;;;;;;;;;;;15.70;99.90;;;;;;5091913;28;19927;-91
2021/09/07 07:07:40;;;;;;;;;;;15.80;99.90;;;;;;5090032;28;19916;-90
2021/09/07 07:10:06;;;;;;;;;;;15.90;99.90;;;;;;5108016;28;19924;-91
2021/09/07 07:12:32;;;;;;;;;;;15.90;99.90;;;;;;5119314;27;19930;-86
2021/09/07 07:14:57;;;;;;;;;;;16.00;99.90;;;;;;5107887;28;20001;-92
2021/09/07 07:17:23;;;;;;;;;;;16.00;99.90;;;;;;5096210;28;19916;-90
2021/09/07 07:19:50;;;;;;;;;;;16.10;99.90;;;;;;5100622;27;19923;-90
2021/09/07 07:22:16;;;;;;;;;;;16.10;99.90;;;;;;5125313;27;19923;-90
2021/09/07 07:24:42;;;;;;;;;;;16.20;99.90;;;;;;5090372;28;20322;-90
2021/09/07 07:27:07;;;;;;;;;;;16.30;99.90;;;;;;5097620;28;20012;-90
2021/09/07 07:29:33;;;;;;;;;;;16.30;99.90;;;;;;5096812;28;19923;-90
2021/09/07 07:31:58;;;;;;;;;;;16.40;99.90;;;;;;5126766;27;19927;-89
2021/09/07 07:34:24;;;;;;;;;;;16.40;99.90;;;;;;5126008;27;19972;-90
2021/09/07 07:36:53;;;;;;;;;;;16.50;99.90;;;;;;5089279;28;20006;-90
2021/09/07 07:39:19;;;;;;;;;;;16.50;99.90;;;;;;5104829;28;19920;-90
2021/09/07 07:41:45;;;;;;;;;;;16.50;99.90;;;;;;5107020;27;19928;-86
2021/09/07 07:44:10;;;;;;;;;;;16.60;99.90;;;;;;5090437;28;19978;-86
2021/09/07 07:46:36;;;;;;;;;;;16.60;99.90;;;;;;5092613;28;19916;-85
2021/09/07 07:49:01;;;;;;;;;;;16.60;99.90;;;;;;5091637;28;20006;-85
2021/09/07 07:51:27;;;;;;;;;;;16.70;99.90;;;;;;5105305;28;19927;-86
2021/09/07 07:53:53;;;;;;;;;;;16.70;99.90;;;;;;5107830;28;19927;-86
2021/09/07 07:56:18;;;;;;;;;;;16.70;99.90;;;;;;5105899;28;20349;-87
2021/09/07 07:58:44;;;;;;;;;;;16.70;99.90;;;;;;5100625;27;19931;-89
2021/09/07 08:01:09;;;;;;;;;;;16.80;99.90;;;;;;5098852;28;19971;-89
2021/09/07 08:03:35;;;;;;;;;;;16.90;99.90;;;;;;5124982;27;19919;-89
2021/09/07 08:06:01;;;;;;;;;;;16.90;99.90;;;;;;5126542;27;19920;-88
2021/09/07 08:08:26;;;;;;;;;;;17.00;99.90;;;;;;5110633;27;19967;-89
2021/09/07 08:10:52;;;;;;;;;;;17.00;99.90;;;;;;5103927;28;19920;-88
2021/09/07 08:13:17;;;;;;;;;;;17.10;99.90;;;;;;5123113;27;19963;-89
2021/09/07 08:15:43;;;;;;;;;;;17.10;99.90;;;;;;5088058;28;19916;-88
2021/09/07 08:18:09;;;;;;;;;;;17.20;99.90;;;;;;5107590;28;19924;-89
2021/09/07 08:20:34;;;;;;;;;;;17.20;99.90;;;;;;5091096;28;21843;-88
2021/09/07 08:23:02;;;;;;;;;;;17.20;99.90;;;;;;5074475;28;19955;-88
2021/09/07 08:25:28;;;;;;;;;;;17.30;99.90;;;;;;5090614;28;20007;-89
2021/09/07 08:27:53;;;;;;;;;;;17.30;99.90;;;;;;5109616;28;20038;-89
2021/09/07 08:30:19;;;;;;;;;;;17.30;99.90;;;;;;5090274;28;19919;-89
2021/09/07 08:32:45;;;;;;;;;;;17.40;99.90;;;;;;5089939;28;19978;-89
2021/09/07 08:35:11;;;;;;;;;;;17.50;99.90;;;;;;5091581;28;19968;-89
2021/09/07 08:37:38;;;;;;;;;;;17.60;99.90;;;;;;5108663;28;19916;-89
2021/09/07 08:40:04;;;;;;;;;;;17.60;99.90;;;;;;5072859;28;19920;-88
2021/09/07 08:42:31;;;;;;;;;;;17.60;99.90;;;;;;5107791;27;19972;-89
2021/09/07 08:44:56;;;;;;;;;;;17.70;99.90;;;;;;5091456;28;20334;-89
2021/09/07 08:47:22;;;;;;;;;;;17.70;99.90;;;;;;5124913;27;20408;-89
2021/09/07 08:49:50;;;;;;;;;;;17.80;99.90;;;;;;5125078;27;19920;-89
2021/09/07 08:52:18;;;;;;;;;;;17.90;99.90;;;;;;5124673;27;19930;-88
2021/09/07 08:54:45;;;;;;;;;;;17.90;99.90;;;;;;5124811;27;19920;-89
2021/09/07 08:57:11;;;;;;;;;;;18.00;99.90;;;;;;5091301;28;19919;-89
2021/09/07 08:59:36;;;;;;;;;;;18.10;99.90;;;;;;5108728;28;19930;-89
2021/09/07 09:02:13;;;;;;;;;;;18.20;99.90;;;;;;5106123;28;20354;-90
2021/09/07 09:04:38;;;;;;;;;;;18.30;99.90;;;;;;5124849;27;19919;-89
2021/09/07 09:07:04;;;;;;;;;;;18.30;99.90;;;;;;5107608;28;19928;-88
2021/09/07 09:09:33;;;;;;;;;;;18.40;99.90;;;;;;5107693;28;19931;-89
2021/09/07 09:11:59;;;;;;;;;;;18.40;99.90;;;;;;5123753;27;19920;-88
2021/09/07 09:14:38;;;;;;;;;;;18.50;99.90;;;;;;5090780;28;19923;-89
2021/09/07 09:17:20;;;;;;;;;;;18.60;99.90;;;;;;5070009;28;19978;-89
2021/09/07 09:19:49;;;;;;;;;;;18.70;99.90;;;;;;5071540;28;19936;-89
2021/09/07 09:22:15;;;;;;;;;;;18.90;99.90;;;;;;5090045;28;19951;-89
2021/09/07 09:24:40;;;;;;;;;;;19.00;99.90;;;;;;5106575;28;19920;-89
2021/09/07 09:27:06;;;;;;;;;;;19.10;99.90;;;;;;5091234;28;19928;-89
2021/09/07 09:29:36;;;;;;;;;;;19.20;99.90;;;;;;5084077;28;19927;-89
2021/09/07 09:32:03;;;;;;;;;;;19.20;99.90;;;;;;5119588;28;20645;-88
2021/09/07 09:34:29;;;;;;;;;;;19.20;99.90;;;;;;5124178;28;19927;-89
2021/09/07 09:36:56;;;;;;;;;;;19.20;99.90;;;;;;5107485;28;19931;-89
2021/09/07 09:39:45;;;;;;;;;;;19.30;99.90;;;;;;5124232;28;19943;-88
2021/09/07 09:42:15;;;;;;;;;;;19.30;99.90;;;;;;5136149;27;20039;-88
2021/09/07 09:44:40;;;;;;;;;;;19.30;99.90;;;;;;5107337;28;19920;-89
2021/09/07 09:47:06;;;;;;;;;;;19.30;99.90;;;;;;5095423;28;20170;-89
2021/09/07 09:49:32;;;;;;;;;;;19.30;99.90;;;;;;5106136;28;19931;-89
2021/09/07 09:52:03;;;;;;;;;;;19.30;99.90;;;;;;5125369;27;19924;-89
2021/09/07 09:54:30;;;;;;;;;;;19.30;99.90;;;;;;5124010;27;19993;-89
2021/09/07 09:56:57;;;;;;;;;;;19.50;99.90;;;;;;5125335;27;20379;-89
2021/09/07 09:59:23;;;;;;;;;;;19.50;99.90;;;;;;5120210;27;19924;-89
2021/09/07 10:01:49;;;;;;;;;;;19.50;99.90;;;;;;5106325;28;19935;-89
2021/09/07 10:04:15;;;;;;;;;;;19.50;99.90;;;;;;5107268;28;19982;-88
2021/09/07 10:06:42;;;;;;;;;;;19.50;99.90;;;;;;5108153;28;19977;-88
2021/09/07 10:09:08;;;;;;;;;;;19.50;99.90;;;;;;5108725;28;19928;-89
2021/09/07 10:11:34;;;;;;;;;;;19.50;99.90;;;;;;5128533;27;19930;-89
2021/09/07 10:14:02;;;;;;;;;;;19.50;99.90;;;;;;5129068;27;20389;-88
2021/09/07 10:16:51;;;;;;;;;;;19.50;99.90;;;;;;5092420;28;19923;-88
2021/09/07 10:19:37;;;;;;;;;;;19.60;99.90;;;;;;5126742;27;19930;-88
2021/09/07 10:24:51;;;;;;;;;;;19.80;99.90;;;;;;5110004;28;19923;-88
2021/09/07 10:27:17;;;;;;;;;;;19.90;99.90;;;;;;5093343;28;19977;-88
2021/09/07 10:29:43;;;;;;;;;;;20.10;99.90;;;;;;5110824;28;19958;-88
2021/09/07 10:32:25;;;;;;;;;;;20.10;99.90;;;;;;5109232;28;20002;-89
2021/09/07 10:35:11;;;;;;;;;;;20.20;99.90;;;;;;5111081;28;20439;-89
2021/09/07 10:38:04;;;;;;;;;;;20.20;99.90;;;;;;5127285;27;19920;-89
2021/09/07 10:40:39;;;;;;;;;;;20.20;99.90;;;;;;5126921;27;19931;-89
2021/09/07 10:43:04;;;;;;;;;;;20.20;99.90;;;;;;5093153;28;19931;-89
2021/09/07 10:45:30;;;;;;;;;;;20.30;99.90;;;;;;5128264;27;19920;-89
2021/09/07 10:47:58;;;;;;;;;;;20.40;99.90;;;;;;5108759;27;20053;-88
2021/09/07 10:50:43;;;;;;;;;;;20.40;99.90;;;;;;5093970;28;19924;-90
2021/09/07 10:53:22;;;;;;;;;;;20.50;99.90;;;;;;5114418;27;20262;-90
2021/09/07 10:55:47;;;;;;;;;;;20.60;99.90;;;;;;5084141;28;20771;-89
2021/09/07 10:58:29;;;;;;;;;;;20.60;99.90;;;;;;5121812;27;19930;-89
2021/09/07 11:00:55;;;;;;;;;;;20.70;99.90;;;;;;5087516;28;20010;-89
2021/09/07 11:03:24;;;;;;;;;;;20.80;99.90;;;;;;5082836;28;19931;-89
2021/09/07 11:05:50;;;;;;;;;;;20.90;99.90;;;;;;5117574;27;19924;-89
2021/09/07 11:08:17;;;;;;;;;;;20.80;99.90;;;;;;5099774;28;19920;-88
2021/09/07 11:10:51;;;;;;;;;;;20.80;99.90;;;;;;5109841;28;19923;-88
2021/09/07 11:13:22;;;;;;;;;;;20.80;99.90;;;;;;5107732;28;19928;-88
2021/09/07 11:15:48;;;;;;;;;;;20.80;99.90;;;;;;5115185;27;19924;-89
2021/09/07 11:18:27;;;;;;;;;;;20.80;99.90;;;;;;5117691;27;19924;-88
2021/09/07 11:20:54;;;;;;;;;;;20.90;99.90;;;;;;5109334;28;19930;-88
2021/09/07 11:23:29;;;;;;;;;;;21.00;99.90;;;;;;5107211;28;19955;-89
2021/09/07 11:26:01;;;;;;;;;;;21.00;99.90;;;;;;5114342;27;19931;-89
2021/09/07 11:28:27;;;;;;;;;;;21.00;99.90;;;;;;5112454;27;19924;-87
2021/09/07 11:30:53;;;;;;;;;;;21.00;99.90;;;;;;5100219;27;20367;-88
2021/09/07 11:33:20;;;;;;;;;;;21.00;99.90;;;;;;5103553;28;19920;-88
2021/09/07 11:35:47;;;;;;;;;;;21.00;99.90;;;;;;5109607;28;20321;-88
2021/09/07 11:38:14;;;;;;;;;;;21.10;99.90;;;;;;5122170;27;19931;-88
2021/09/07 11:40:41;;;;;;;;;;;21.10;99.90;;;;;;5108059;28;19975;-88
2021/09/07 11:43:07;;;;;;;;;;;21.20;99.90;;;;;;5122819;27;20007;-88
2021/09/07 11:45:33;;;;;;;;;;;21.20;99.90;;;;;;5125808;27;20014;-89
2021/09/07 11:48:00;;;;;;;;;;;21.20;99.90;;;;;;5109878;28;19970;-89
2021/09/07 11:50:30;;;;;;;;;;;21.30;99.90;;;;;;5126121;27;20014;-89
2021/09/07 11:52:56;;;;;;;;;;;21.30;99.90;;;;;;5124790;27;19927;-89
2021/09/07 11:55:35;;;;;;;;;;;21.40;99.90;;;;;;5127012;27;20171;-89
2021/09/07 11:58:01;;;;;;;;;;;21.50;99.90;;;;;;5106583;27;20018;-89
2021/09/07 12:00:26;;;;;;;;;;;21.50;99.90;;;;;;5072920;28;20134;-89
2021/09/07 12:03:08;;;;;;;;;;;21.40;99.90;;;;;;5126001;27;19983;-89
2021/09/07 12:05:56;;;;;;;;;;;21.40;99.90;;;;;;5126418;27;20077;-88
2021/09/07 12:08:51;;;;;;;;;;;21.50;99.90;;;;;;5107448;28;20421;-89
2021/09/07 12:11:30;;;;;;;;;;;21.50;99.90;;;;;;5133427;27;19923;-89
2021/09/07 12:14:09;;;;;;;;;;;21.60;99.90;;;;;;5108011;28;19924;-89
2021/09/07 12:16:35;;;;;;;;;;;21.70;99.90;;;;;;5092654;28;20023;-88
2021/09/07 12:19:20;;;;;;;;;;;21.70;99.90;;;;;;5121590;27;20377;-88
2021/09/07 12:21:46;;;;;;;;;;;21.70;99.90;;;;;;5123925;27;20000;-89
2021/09/07 12:24:15;;;;;;;;;;;21.70;99.90;;;;;;5077716;28;19923;-90
2021/09/07 12:26:41;;;;;;;;;;;21.70;99.90;;;;;;5059429;28;20012;-88
2021/09/07 12:29:14;;;;;;;;;;;21.80;99.90;;;;;;5076091;28;19924;-89
2021/09/07 12:31:40;;;;;;;;;;;21.90;99.90;;;;;;5103052;28;19924;-89
2021/09/07 12:34:06;;;;;;;;;;;21.90;99.90;;;;;;5091399;28;19927;-88
2021/09/07 12:36:42;;;;;;;;;;;22.00;99.90;;;;;;5108511;28;19970;-89
2021/09/07 12:39:08;;;;;;;;;;;22.00;99.90;;;;;;5091538;28;20019;-88
2021/09/07 12:41:34;;;;;;;;;;;22.00;99.90;;;;;;5091034;28;20387;-89
2021/09/07 12:43:59;;;;;;;;;;;22.10;99.90;;;;;;5073590;28;19920;-89
2021/09/07 12:46:25;;;;;;;;;;;22.10;99.90;;;;;;5090374;28;19924;-88
2021/09/07 12:48:51;;;;;;;;;;;22.10;99.90;;;;;;5091293;28;19924;-88
2021/09/07 12:51:18;;;;;;;;;;;22.10;99.90;;;;;;5078598;28;19920;-88
2021/09/07 12:53:45;;;;;;;;;;;22.00;99.90;;;;;;5087474;28;19920;-89
2021/09/07 12:56:13;;;;;;;;;;;22.10;99.90;;;;;;5107044;28;19923;-88
2021/09/07 12:58:41;;;;;;;;;;;22.20;99.90;;;;;;5091512;28;19947;-89
2021/09/07 13:01:07;;;;;;;;;;;22.30;99.90;;;;;;5088386;28;19989;-85
2021/09/07 13:03:37;;;;;;;;;;;22.40;99.90;;;;;;5089524;28;19928;-85
2021/09/07 13:06:03;;;;;;;;;;;22.60;99.90;;;;;;5055505;28;20351;-87
2021/09/07 13:08:29;;;;;;;;;;;22.70;99.90;;;;;;5105626;28;20393;-86
2021/09/07 13:10:54;;;;;;;;;;;22.70;99.90;;;;;;5117390;27;19920;-88
2021/09/07 13:13:20;;;;;;;;;;;22.70;99.90;;;;;;5052938;28;19924;-88
2021/09/07 13:15:46;;;;;;;;;;;22.70;99.90;;;;;;5090340;28;20422;-87
2021/09/07 13:18:11;;;;;;;;;;;22.70;99.90;;;;;;5091101;28;19926;-87
2021/09/07 13:20:37;;;;;;;;;;;22.70;99.90;;;;;;5090227;28;20041;-88
2021/09/07 13:23:03;;;;;;;;;;;22.70;99.90;;;;;;5068418;28;20290;-87
2021/09/07 13:25:28;;;;;;;;;;;22.70;99.90;;;;;;5088387;28;19931;-88
2021/09/07 13:27:54;;;;;;;;;;;22.70;99.90;;;;;;5109090;28;19971;-89
2021/09/07 13:30:19;;;;;;;;;;;22.70;99.90;;;;;;5089176;28;19920;-89
2021/09/07 13:32:45;;;;;;;;;;;22.80;99.90;;;;;;5072404;28;19946;-89
2021/09/07 13:35:11;;;;;;;;;;;22.90;99.90;;;;;;5071611;28;19950;-89
2021/09/07 13:37:36;;;;;;;;;;;22.90;99.90;;;;;;5088728;28;19924;-90
2021/09/07 13:40:02;;;;;;;;;;;23.00;99.90;;;;;;5090732;28;19934;-89
2021/09/07 13:42:28;;;;;;;;;;;22.90;99.90;;;;;;5107446;28;19924;-89
2021/09/07 13:44:54;;;;;;;;;;;22.80;99.90;;;;;;5087858;28;19927;-89
2021/09/07 13:47:20;;;;;;;;;;;22.80;99.90;;;;;;5107629;28;20401;-89
2021/09/07 13:49:45;;;;;;;;;;;22.70;99.90;;;;;;5108403;28;19920;-89
2021/09/07 13:52:11;;;;;;;;;;;22.70;99.90;;;;;;5106508;28;20272;-88
2021/09/07 13:54:36;;;;;;;;;;;22.70;99.90;;;;;;5125569;27;20023;-88
2021/09/07 13:57:02;;;;;;;;;;;22.80;99.90;;;;;;5123952;27;20370;-88
2021/09/07 13:59:29;;;;;;;;;;;22.80;99.90;;;;;;5124182;27;19982;-90
2021/09/07 14:01:54;;;;;;;;;;;22.80;99.90;;;;;;5089568;28;19928;-89
2021/09/07 14:04:20;;;;;;;;;;;22.80;99.90;;;;;;5107766;28;19930;-89
2021/09/07 14:06:46;;;;;;;;;;;22.80;99.90;;;;;;5105483;28;19999;-90
2021/09/07 14:09:11;;;;;;;;;;;22.70;99.90;;;;;;5091040;28;19924;-89
2021/09/07 14:11:38;;;;;;;;;;;22.70;99.90;;;;;;5090538;28;20378;-89
2021/09/07 14:14:04;;;;;;;;;;;22.70;99.90;;;;;;5106590;28;20374;-89
2021/09/07 14:16:30;;;;;;;;;;;22.70;99.90;;;;;;5088856;28;19973;-90
2021/09/07 14:18:55;;;;;;;;;;;22.80;99.90;;;;;;5112053;28;19916;-90